sensor_id;sensor_type;location;lat;lon;timestamp;P1;durP1;ratioP1;P2;durP2;ratioP2
19193;SDS011;9729;52.296;13.260;2023-04-15T00:00:23;49.20;;;25.90;;
19193;SDS011;9729;52.296;13.260;2023-04-15T00:02:49;47.10;;;25.17;;
19193;SDS011;9729;52.296;13.260;2023-04-15T00:05:17;51.77;;;26.63;;
19193;SDS011;9729;52.296;13.260;2023-04-15T00:07:43;50.03;;;27.27;;
19193;SDS011;9729;52.296;13.260;2023-04-15T00:10:11;53.53;;;28.37;;
19193;SDS011;9729;52.296;13.260;2023-04-15T00:12:38;55.53;;;28.93;;
19193;SDS011;9729;52.296;13.260;2023-04-15T00:15:05;49.83;;;27.50;;
19193;SDS011;9729;52.296;13.260;2023-04-15T00:17:34;52.90;;;26.70;;
19193;SDS011;9729;52.296;13.260;2023-04-15T00:20:03;55.30;;;29.10;;
19193;SDS011;9729;52.296;13.260;2023-04-15T00:22:30;52.63;;;27.53;;
19193;SDS011;9729;52.296;13.260;2023-04-15T00:24:57;55.47;;;30.33;;
19193;SDS011;9729;52.296;13.260;2023-04-15T00:27:23;58.20;;;30.00;;
19193;SDS011;9729;52.296;13.260;2023-04-15T00:29:50;60.87;;;30.83;;
19193;SDS011;9729;52.296;13.260;2023-04-15T00:32:16;57.90;;;27.77;;
19193;SDS011;9729;52.296;13.260;2023-04-15T00:34:44;59.23;;;30.87;;
19193;SDS011;9729;52.296;13.260;2023-04-15T00:37:11;61.07;;;31.20;;
19193;SDS011;9729;52.296;13.260;2023-04-15T00:39:37;59.57;;;28.10;;
19193;SDS011;9729;52.296;13.260;2023-04-15T00:42:04;60.60;;;29.33;;
19193;SDS011;9729;52.296;13.260;2023-04-15T00:44:30;54.90;;;30.83;;
19193;SDS011;9729;52.296;13.260;2023-04-15T00:46:57;58.07;;;29.23;;
19193;SDS011;9729;52.296;13.260;2023-04-15T00:49:25;57.13;;;29.90;;
19193;SDS011;9729;52.296;13.260;2023-04-15T00:51:53;58.93;;;29.73;;
19193;SDS011;9729;52.296;13.260;2023-04-15T00:54:20;58.70;;;31.23;;
19193;SDS011;9729;52.296;13.260;2023-04-15T00:56:46;57.03;;;31.40;;
19193;SDS011;9729;52.296;13.260;2023-04-15T00:59:13;57.20;;;29.30;;
19193;SDS011;9729;52.296;13.260;2023-04-15T01:01:39;68.83;;;31.70;;
19193;SDS011;9729;52.296;13.260;2023-04-15T01:04:06;67.97;;;31.50;;
19193;SDS011;9729;52.296;13.260;2023-04-15T01:06:34;54.93;;;30.00;;
19193;SDS011;9729;52.296;13.260;2023-04-15T01:09:02;68.50;;;32.77;;
19193;SDS011;9729;52.296;13.260;2023-04-15T01:11:28;68.40;;;33.33;;
19193;SDS011;9729;52.296;13.260;2023-04-15T01:13:55;58.70;;;30.43;;
19193;SDS011;9729;52.296;13.260;2023-04-15T01:16:23;65.33;;;34.00;;
19193;SDS011;9729;52.296;13.260;2023-04-15T01:18:51;70.80;;;35.93;;
19193;SDS011;9729;52.296;13.260;2023-04-15T01:21:17;71.13;;;34.60;;
19193;SDS011;9729;52.296;13.260;2023-04-15T01:23:44;66.37;;;33.80;;
19193;SDS011;9729;52.296;13.260;2023-04-15T01:26:13;72.10;;;36.57;;
19193;SDS011;9729;52.296;13.260;2023-04-15T01:28:40;68.77;;;34.23;;
19193;SDS011;9729;52.296;13.260;2023-04-15T01:31:07;77.03;;;37.17;;
19193;SDS011;9729;52.296;13.260;2023-04-15T01:33:34;80.60;;;39.00;;
19193;SDS011;9729;52.296;13.260;2023-04-15T01:36:00;78.93;;;38.33;;
19193;SDS011;9729;52.296;13.260;2023-04-15T01:38:27;73.50;;;36.03;;
19193;SDS011;9729;52.296;13.260;2023-04-15T01:40:55;79.03;;;37.40;;
19193;SDS011;9729;52.296;13.260;2023-04-15T01:43:22;74.37;;;36.50;;
19193;SDS011;9729;52.296;13.260;2023-04-15T01:45:49;77.53;;;38.33;;
19193;SDS011;9729;52.296;13.260;2023-04-15T01:48:16;79.33;;;37.87;;
19193;SDS011;9729;52.296;13.260;2023-04-15T01:50:43;87.10;;;39.93;;
19193;SDS011;9729;52.296;13.260;2023-04-15T01:53:09;86.47;;;40.97;;
19193;SDS011;9729;52.296;13.260;2023-04-15T01:55:36;76.73;;;38.47;;
19193;SDS011;9729;52.296;13.260;2023-04-15T01:58:02;80.37;;;37.67;;
19193;SDS011;9729;52.296;13.260;2023-04-15T02:00:30;79.43;;;38.67;;
19193;SDS011;9729;52.296;13.260;2023-04-15T02:02:56;79.77;;;39.07;;
19193;SDS011;9729;52.296;13.260;2023-04-15T02:05:23;80.27;;;38.00;;
19193;SDS011;9729;52.296;13.260;2023-04-15T02:07:49;85.27;;;39.53;;
19193;SDS011;9729;52.296;13.260;2023-04-15T02:10:16;79.20;;;37.67;;
19193;SDS011;9729;52.296;13.260;2023-04-15T02:12:42;83.97;;;39.33;;
19193;SDS011;9729;52.296;13.260;2023-04-15T02:15:09;87.73;;;40.23;;
19193;SDS011;9729;52.296;13.260;2023-04-15T02:17:37;84.97;;;39.03;;
19193;SDS011;9729;52.296;13.260;2023-04-15T02:20:03;82.47;;;40.20;;
19193;SDS011;9729;52.296;13.260;2023-04-15T02:22:30;82.17;;;40.53;;
19193;SDS011;9729;52.296;13.260;2023-04-15T02:24:57;88.20;;;39.73;;
19193;SDS011;9729;52.296;13.260;2023-04-15T02:27:23;87.77;;;41.90;;
19193;SDS011;9729;52.296;13.260;2023-04-15T02:29:50;90.27;;;41.20;;
19193;SDS011;9729;52.296;13.260;2023-04-15T02:32:16;87.37;;;41.87;;
19193;SDS011;9729;52.296;13.260;2023-04-15T02:34:45;101.27;;;42.90;;
19193;SDS011;9729;52.296;13.260;2023-04-15T02:37:12;83.40;;;38.87;;
19193;SDS011;9729;52.296;13.260;2023-04-15T02:39:38;89.33;;;40.10;;
19193;SDS011;9729;52.296;13.260;2023-04-15T02:42:04;79.97;;;41.13;;
19193;SDS011;9729;52.296;13.260;2023-04-15T02:44:31;93.77;;;41.17;;
19193;SDS011;9729;52.296;13.260;2023-04-15T02:46:59;92.00;;;40.93;;
19193;SDS011;9729;52.296;13.260;2023-04-15T02:49:25;91.03;;;42.93;;
19193;SDS011;9729;52.296;13.260;2023-04-15T02:51:55;88.37;;;40.13;;
19193;SDS011;9729;52.296;13.260;2023-04-15T02:54:22;98.97;;;41.50;;
19193;SDS011;9729;52.296;13.260;2023-04-15T02:56:49;88.90;;;39.33;;
19193;SDS011;9729;52.296;13.260;2023-04-15T02:59:16;90.13;;;41.17;;
19193;SDS011;9729;52.296;13.260;2023-04-15T03:01:42;88.17;;;41.27;;
19193;SDS011;9729;52.296;13.260;2023-04-15T03:04:08;96.33;;;41.83;;
19193;SDS011;9729;52.296;13.260;2023-04-15T03:06:35;96.13;;;42.70;;
19193;SDS011;9729;52.296;13.260;2023-04-15T03:09:02;90.03;;;40.57;;
19193;SDS011;9729;52.296;13.260;2023-04-15T03:11:28;101.73;;;42.30;;
19193;SDS011;9729;52.296;13.260;2023-04-15T03:13:55;97.80;;;42.40;;
19193;SDS011;9729;52.296;13.260;2023-04-15T03:16:21;96.87;;;42.17;;
19193;SDS011;9729;52.296;13.260;2023-04-15T03:18:48;99.20;;;44.40;;
19193;SDS011;9729;52.296;13.260;2023-04-15T03:21:14;96.70;;;42.20;;
19193;SDS011;9729;52.296;13.260;2023-04-15T03:23:40;93.73;;;44.07;;
19193;SDS011;9729;52.296;13.260;2023-04-15T03:26:08;91.93;;;43.27;;
19193;SDS011;9729;52.296;13.260;2023-04-15T03:28:34;100.27;;;43.30;;
19193;SDS011;9729;52.296;13.260;2023-04-15T03:31:01;96.07;;;43.20;;
19193;SDS011;9729;52.296;13.260;2023-04-15T03:33:27;92.20;;;42.50;;
19193;SDS011;9729;52.296;13.260;2023-04-15T03:35:53;82.53;;;38.47;;
19193;SDS011;9729;52.296;13.260;2023-04-15T03:38:19;93.33;;;41.27;;
19193;SDS011;9729;52.296;13.260;2023-04-15T03:40:46;100.67;;;42.77;;
19193;SDS011;9729;52.296;13.260;2023-04-15T03:43:13;97.13;;;43.20;;
19193;SDS011;9729;52.296;13.260;2023-04-15T03:45:40;93.67;;;41.27;;
19193;SDS011;9729;52.296;13.260;2023-04-15T03:48:07;96.33;;;40.67;;
19193;SDS011;9729;52.296;13.260;2023-04-15T03:50:33;98.37;;;42.03;;
19193;SDS011;9729;52.296;13.260;2023-04-15T03:52:59;101.73;;;40.43;;
19193;SDS011;9729;52.296;13.260;2023-04-15T03:55:26;81.97;;;40.10;;
19193;SDS011;9729;52.296;13.260;2023-04-15T03:57:52;80.80;;;39.43;;
19193;SDS011;9729;52.296;13.260;2023-04-15T04:00:19;87.97;;;39.30;;
19193;SDS011;9729;52.296;13.260;2023-04-15T04:02:46;84.70;;;38.03;;
19193;SDS011;9729;52.296;13.260;2023-04-15T04:05:12;88.30;;;40.13;;
19193;SDS011;9729;52.296;13.260;2023-04-15T04:07:38;84.23;;;38.43;;
19193;SDS011;9729;52.296;13.260;2023-04-15T04:10:05;84.63;;;39.70;;
19193;SDS011;9729;52.296;13.260;2023-04-15T04:12:32;86.93;;;40.47;;
19193;SDS011;9729;52.296;13.260;2023-04-15T04:14:58;80.77;;;38.70;;
19193;SDS011;9729;52.296;13.260;2023-04-15T04:17:26;81.30;;;38.57;;
19193;SDS011;9729;52.296;13.260;2023-04-15T04:19:53;74.97;;;37.17;;
19193;SDS011;9729;52.296;13.260;2023-04-15T04:22:21;78.93;;;38.00;;
19193;SDS011;9729;52.296;13.260;2023-04-15T04:24:47;68.07;;;35.27;;
19193;SDS011;9729;52.296;13.260;2023-04-15T04:27:16;67.27;;;34.73;;
19193;SDS011;9729;52.296;13.260;2023-04-15T04:29:46;78.27;;;36.63;;
19193;SDS011;9729;52.296;13.260;2023-04-15T04:32:14;68.97;;;34.37;;
19193;SDS011;9729;52.296;13.260;2023-04-15T04:34:43;75.57;;;38.77;;
19193;SDS011;9729;52.296;13.260;2023-04-15T04:37:12;78.77;;;35.93;;
19193;SDS011;9729;52.296;13.260;2023-04-15T04:39:39;71.30;;;35.50;;
19193;SDS011;9729;52.296;13.260;2023-04-15T04:42:05;74.40;;;35.47;;
19193;SDS011;9729;52.296;13.260;2023-04-15T04:44:32;78.70;;;36.40;;
19193;SDS011;9729;52.296;13.260;2023-04-15T04:46:58;76.37;;;34.73;;
19193;SDS011;9729;52.296;13.260;2023-04-15T04:49:25;71.10;;;36.37;;
19193;SDS011;9729;52.296;13.260;2023-04-15T04:51:53;83.47;;;35.33;;
19193;SDS011;9729;52.296;13.260;2023-04-15T04:54:19;63.63;;;31.93;;
19193;SDS011;9729;52.296;13.260;2023-04-15T04:56:46;71.37;;;34.93;;
19193;SDS011;9729;52.296;13.260;2023-04-15T04:59:13;75.33;;;33.73;;
19193;SDS011;9729;52.296;13.260;2023-04-15T05:01:39;75.10;;;34.60;;
19193;SDS011;9729;52.296;13.260;2023-04-15T05:04:05;71.77;;;34.50;;
19193;SDS011;9729;52.296;13.260;2023-04-15T05:06:32;62.03;;;32.53;;
19193;SDS011;9729;52.296;13.260;2023-04-15T05:09:01;65.97;;;32.83;;
19193;SDS011;9729;52.296;13.260;2023-04-15T05:11:28;62.37;;;32.70;;
19193;SDS011;9729;52.296;13.260;2023-04-15T05:13:55;64.47;;;32.17;;
19193;SDS011;9729;52.296;13.260;2023-04-15T05:16:22;63.17;;;33.57;;
19193;SDS011;9729;52.296;13.260;2023-04-15T05:18:49;66.33;;;32.50;;
19193;SDS011;9729;52.296;13.260;2023-04-15T05:21:16;64.70;;;32.17;;
19193;SDS011;9729;52.296;13.260;2023-04-15T05:23:43;53.77;;;28.80;;
19193;SDS011;9729;52.296;13.260;2023-04-15T05:26:10;52.40;;;31.10;;
19193;SDS011;9729;52.296;13.260;2023-04-15T05:28:37;57.23;;;30.33;;
19193;SDS011;9729;52.296;13.260;2023-04-15T05:31:03;54.60;;;29.47;;
19193;SDS011;9729;52.296;13.260;2023-04-15T05:33:30;53.37;;;30.90;;
19193;SDS011;9729;52.296;13.260;2023-04-15T05:35:57;53.20;;;28.67;;
19193;SDS011;9729;52.296;13.260;2023-04-15T05:38:23;48.37;;;26.10;;
19193;SDS011;9729;52.296;13.260;2023-04-15T05:40:50;54.43;;;29.63;;
19193;SDS011;9729;52.296;13.260;2023-04-15T05:43:17;49.40;;;25.00;;
19193;SDS011;9729;52.296;13.260;2023-04-15T05:45:44;46.53;;;26.47;;
19193;SDS011;9729;52.296;13.260;2023-04-15T05:48:11;51.80;;;27.37;;
19193;SDS011;9729;52.296;13.260;2023-04-15T05:50:39;46.20;;;27.63;;
19193;SDS011;9729;52.296;13.260;2023-04-15T05:53:06;48.80;;;27.00;;
19193;SDS011;9729;52.296;13.260;2023-04-15T05:55:33;41.23;;;21.80;;
19193;SDS011;9729;52.296;13.260;2023-04-15T05:57:59;41.17;;;23.40;;
19193;SDS011;9729;52.296;13.260;2023-04-15T06:00:27;43.80;;;23.43;;
19193;SDS011;9729;52.296;13.260;2023-04-15T06:02:54;44.60;;;23.10;;
19193;SDS011;9729;52.296;13.260;2023-04-15T06:05:22;41.33;;;19.97;;
19193;SDS011;9729;52.296;13.260;2023-04-15T06:07:48;37.80;;;24.13;;
19193;SDS011;9729;52.296;13.260;2023-04-15T06:10:15;36.20;;;20.93;;
19193;SDS011;9729;52.296;13.260;2023-04-15T06:12:41;31.37;;;20.47;;
19193;SDS011;9729;52.296;13.260;2023-04-15T06:15:08;39.23;;;21.80;;
19193;SDS011;9729;52.296;13.260;2023-04-15T06:17:37;34.33;;;21.27;;
19193;SDS011;9729;52.296;13.260;2023-04-15T06:20:04;31.93;;;19.33;;
19193;SDS011;9729;52.296;13.260;2023-04-15T06:22:32;32.57;;;19.70;;
19193;SDS011;9729;52.296;13.260;2023-04-15T06:24:58;29.20;;;17.93;;
19193;SDS011;9729;52.296;13.260;2023-04-15T06:27:25;27.77;;;18.23;;
19193;SDS011;9729;52.296;13.260;2023-04-15T06:29:51;32.50;;;20.23;;
19193;SDS011;9729;52.296;13.260;2023-04-15T06:32:18;34.73;;;18.30;;
19193;SDS011;9729;52.296;13.260;2023-04-15T06:34:46;26.27;;;18.23;;
19193;SDS011;9729;52.296;13.260;2023-04-15T06:37:12;33.53;;;16.87;;
19193;SDS011;9729;52.296;13.260;2023-04-15T06:39:40;31.60;;;18.27;;
19193;SDS011;9729;52.296;13.260;2023-04-15T06:42:06;27.63;;;18.83;;
19193;SDS011;9729;52.296;13.260;2023-04-15T06:44:33;29.03;;;17.87;;
19193;SDS011;9729;52.296;13.260;2023-04-15T06:47:00;26.30;;;17.07;;
19193;SDS011;9729;52.296;13.260;2023-04-15T06:49:26;23.40;;;17.23;;
19193;SDS011;9729;52.296;13.260;2023-04-15T06:51:54;24.57;;;14.57;;
19193;SDS011;9729;52.296;13.260;2023-04-15T06:54:20;28.23;;;15.83;;
19193;SDS011;9729;52.296;13.260;2023-04-15T06:56:46;22.20;;;16.70;;
19193;SDS011;9729;52.296;13.260;2023-04-15T06:59:13;24.63;;;14.10;;
19193;SDS011;9729;52.296;13.260;2023-04-15T07:01:39;21.77;;;14.83;;
19193;SDS011;9729;52.296;13.260;2023-04-15T07:04:06;25.23;;;14.90;;
19193;SDS011;9729;52.296;13.260;2023-04-15T07:06:32;24.97;;;14.67;;
19193;SDS011;9729;52.296;13.260;2023-04-15T07:09:01;24.17;;;14.60;;
19193;SDS011;9729;52.296;13.260;2023-04-15T07:11:29;25.53;;;16.17;;
19193;SDS011;9729;52.296;13.260;2023-04-15T07:13:56;22.23;;;13.73;;
19193;SDS011;9729;52.296;13.260;2023-04-15T07:16:23;21.47;;;14.63;;
19193;SDS011;9729;52.296;13.260;2023-04-15T07:18:49;19.40;;;14.87;;
19193;SDS011;9729;52.296;13.260;2023-04-15T07:21:15;22.73;;;14.37;;
19193;SDS011;9729;52.296;13.260;2023-04-15T07:23:42;20.73;;;13.83;;
19193;SDS011;9729;52.296;13.260;2023-04-15T07:26:10;26.77;;;13.83;;
19193;SDS011;9729;52.296;13.260;2023-04-15T07:28:37;25.17;;;15.67;;
19193;SDS011;9729;52.296;13.260;2023-04-15T07:31:05;25.70;;;15.23;;
19193;SDS011;9729;52.296;13.260;2023-04-15T07:33:31;22.00;;;14.63;;
19193;SDS011;9729;52.296;13.260;2023-04-15T07:35:57;22.53;;;14.40;;
19193;SDS011;9729;52.296;13.260;2023-04-15T07:38:24;20.97;;;15.00;;
19193;SDS011;9729;52.296;13.260;2023-04-15T07:40:50;20.77;;;13.50;;
19193;SDS011;9729;52.296;13.260;2023-04-15T07:43:18;19.43;;;12.83;;
19193;SDS011;9729;52.296;13.260;2023-04-15T07:45:45;24.93;;;14.23;;
19193;SDS011;9729;52.296;13.260;2023-04-15T07:48:11;23.73;;;13.37;;
19193;SDS011;9729;52.296;13.260;2023-04-15T07:50:37;20.90;;;13.63;;
19193;SDS011;9729;52.296;13.260;2023-04-15T07:53:04;22.63;;;14.20;;
19193;SDS011;9729;52.296;13.260;2023-04-15T07:55:31;14.63;;;11.97;;
19193;SDS011;9729;52.296;13.260;2023-04-15T07:57:57;25.27;;;14.70;;
19193;SDS011;9729;52.296;13.260;2023-04-15T08:00:25;19.43;;;14.23;;
19193;SDS011;9729;52.296;13.260;2023-04-15T08:02:52;21.33;;;14.17;;
19193;SDS011;9729;52.296;13.260;2023-04-15T08:05:18;19.30;;;12.90;;
19193;SDS011;9729;52.296;13.260;2023-04-15T08:07:45;23.33;;;14.63;;
19193;SDS011;9729;52.296;13.260;2023-04-15T08:10:11;21.53;;;14.70;;
19193;SDS011;9729;52.296;13.260;2023-04-15T08:12:37;21.23;;;14.33;;
19193;SDS011;9729;52.296;13.260;2023-04-15T08:15:04;24.33;;;15.27;;
19193;SDS011;9729;52.296;13.260;2023-04-15T08:17:33;20.83;;;14.53;;
19193;SDS011;9729;52.296;13.260;2023-04-15T08:19:59;26.57;;;15.07;;
19193;SDS011;9729;52.296;13.260;2023-04-15T08:22:26;23.03;;;15.33;;
19193;SDS011;9729;52.296;13.260;2023-04-15T08:24:52;21.97;;;14.57;;
19193;SDS011;9729;52.296;13.260;2023-04-15T08:27:18;22.80;;;15.43;;
19193;SDS011;9729;52.296;13.260;2023-04-15T08:29:45;22.33;;;16.87;;
19193;SDS011;9729;52.296;13.260;2023-04-15T08:32:11;24.43;;;16.60;;
19193;SDS011;9729;52.296;13.260;2023-04-15T08:34:40;20.97;;;15.83;;
19193;SDS011;9729;52.296;13.260;2023-04-15T08:37:06;21.57;;;16.00;;
19193;SDS011;9729;52.296;13.260;2023-04-15T08:39:32;25.27;;;16.73;;
19193;SDS011;9729;52.296;13.260;2023-04-15T08:41:59;23.20;;;16.67;;
19193;SDS011;9729;52.296;13.260;2023-04-15T08:44:27;32.30;;;17.53;;
19193;SDS011;9729;52.296;13.260;2023-04-15T08:46:55;24.40;;;16.87;;
19193;SDS011;9729;52.296;13.260;2023-04-15T08:49:22;29.37;;;16.83;;
19193;SDS011;9729;52.296;13.260;2023-04-15T08:51:53;26.60;;;18.50;;
19193;SDS011;9729;52.296;13.260;2023-04-15T08:54:21;24.73;;;17.13;;
19193;SDS011;9729;52.296;13.260;2023-04-15T08:56:47;28.90;;;17.37;;
19193;SDS011;9729;52.296;13.260;2023-04-15T08:59:14;25.70;;;17.47;;
19193;SDS011;9729;52.296;13.260;2023-04-15T09:01:40;27.93;;;17.60;;
19193;SDS011;9729;52.296;13.260;2023-04-15T09:04:07;25.70;;;17.00;;
19193;SDS011;9729;52.296;13.260;2023-04-15T09:06:33;23.40;;;17.37;;
19193;SDS011;9729;52.296;13.260;2023-04-15T09:09:01;24.43;;;15.47;;
19193;SDS011;9729;52.296;13.260;2023-04-15T09:11:28;22.17;;;16.37;;
19193;SDS011;9729;52.296;13.260;2023-04-15T09:13:55;26.47;;;17.10;;
19193;SDS011;9729;52.296;13.260;2023-04-15T09:16:22;23.30;;;16.90;;
19193;SDS011;9729;52.296;13.260;2023-04-15T09:18:48;23.33;;;16.87;;
19193;SDS011;9729;52.296;13.260;2023-04-15T09:21:15;26.37;;;17.87;;
19193;SDS011;9729;52.296;13.260;2023-04-15T09:23:53;23.70;;;18.03;;
19193;SDS011;9729;52.296;13.260;2023-04-15T09:26:29;19.97;;;13.40;;
19193;SDS011;9729;52.296;13.260;2023-04-15T09:29:01;26.77;;;17.83;;
19193;SDS011;9729;52.296;13.260;2023-04-15T09:31:29;23.93;;;15.33;;
19193;SDS011;9729;52.296;13.260;2023-04-15T09:33:55;26.23;;;18.53;;
19193;SDS011;9729;52.296;13.260;2023-04-15T09:36:21;27.33;;;17.70;;
19193;SDS011;9729;52.296;13.260;2023-04-15T09:38:53;25.83;;;16.87;;
19193;SDS011;9729;52.296;13.260;2023-04-15T09:41:20;31.93;;;17.90;;
19193;SDS011;9729;52.296;13.260;2023-04-15T09:43:48;26.13;;;18.80;;
19193;SDS011;9729;52.296;13.260;2023-04-15T09:46:18;23.93;;;16.47;;
19193;SDS011;9729;52.296;13.260;2023-04-15T09:48:44;24.73;;;17.10;;
19193;SDS011;9729;52.296;13.260;2023-04-15T09:51:11;24.73;;;18.47;;
19193;SDS011;9729;52.296;13.260;2023-04-15T09:53:37;24.90;;;18.40;;
19193;SDS011;9729;52.296;13.260;2023-04-15T09:56:04;27.37;;;18.07;;
19193;SDS011;9729;52.296;13.260;2023-04-15T09:58:32;26.47;;;17.80;;
19193;SDS011;9729;52.296;13.260;2023-04-15T10:01:01;22.80;;;17.40;;
19193;SDS011;9729;52.296;13.260;2023-04-15T10:03:28;25.30;;;17.07;;
19193;SDS011;9729;52.296;13.260;2023-04-15T10:05:57;23.83;;;18.07;;
19193;SDS011;9729;52.296;13.260;2023-04-15T10:08:26;22.23;;;16.77;;
19193;SDS011;9729;52.296;13.260;2023-04-15T10:10:53;22.70;;;16.87;;
19193;SDS011;9729;52.296;13.260;2023-04-15T10:13:20;25.20;;;17.53;;
19193;SDS011;9729;52.296;13.260;2023-04-15T10:15:49;24.80;;;17.13;;
19193;SDS011;9729;52.296;13.260;2023-04-15T10:18:19;22.70;;;16.57;;
19193;SDS011;9729;52.296;13.260;2023-04-15T10:20:45;34.63;;;18.17;;
19193;SDS011;9729;52.296;13.260;2023-04-15T10:23:13;25.77;;;18.53;;
19193;SDS011;9729;52.296;13.260;2023-04-15T10:25:40;23.57;;;17.57;;
19193;SDS011;9729;52.296;13.260;2023-04-15T10:28:07;24.30;;;17.47;;
19193;SDS011;9729;52.296;13.260;2023-04-15T10:30:33;24.37;;;18.63;;
19193;SDS011;9729;52.296;13.260;2023-04-15T10:33:00;26.47;;;19.87;;
19193;SDS011;9729;52.296;13.260;2023-04-15T10:35:29;23.47;;;16.97;;
19193;SDS011;9729;52.296;13.260;2023-04-15T10:37:56;25.10;;;17.77;;
19193;SDS011;9729;52.296;13.260;2023-04-15T10:40:24;25.17;;;18.00;;
19193;SDS011;9729;52.296;13.260;2023-04-15T10:42:52;22.77;;;17.33;;
19193;SDS011;9729;52.296;13.260;2023-04-15T10:45:19;24.40;;;16.63;;
19193;SDS011;9729;52.296;13.260;2023-04-15T10:47:49;23.23;;;17.23;;
19193;SDS011;9729;52.296;13.260;2023-04-15T10:50:17;20.77;;;16.23;;
19193;SDS011;9729;52.296;13.260;2023-04-15T10:52:45;22.87;;;17.67;;
19193;SDS011;9729;52.296;13.260;2023-04-15T10:55:12;22.53;;;16.40;;
19193;SDS011;9729;52.296;13.260;2023-04-15T10:57:39;21.73;;;15.70;;
19193;SDS011;9729;52.296;13.260;2023-04-15T11:00:10;22.40;;;17.23;;
19193;SDS011;9729;52.296;13.260;2023-04-15T11:02:39;23.97;;;17.13;;
19193;SDS011;9729;52.296;13.260;2023-04-15T11:05:06;24.40;;;16.17;;
19193;SDS011;9729;52.296;13.260;2023-04-15T11:07:36;20.67;;;16.73;;
19193;SDS011;9729;52.296;13.260;2023-04-15T11:13:19;20.60;;;16.30;;
19193;SDS011;9729;52.296;13.260;2023-04-15T11:15:47;23.33;;;16.53;;
19193;SDS011;9729;52.296;13.260;2023-04-15T11:18:14;22.40;;;16.67;;
19193;SDS011;9729;52.296;13.260;2023-04-15T11:20:42;20.80;;;16.20;;
19193;SDS011;9729;52.296;13.260;2023-04-15T11:23:09;24.83;;;17.40;;
19193;SDS011;9729;52.296;13.260;2023-04-15T11:25:36;25.43;;;18.87;;
19193;SDS011;9729;52.296;13.260;2023-04-15T11:28:03;25.70;;;18.73;;
19193;SDS011;9729;52.296;13.260;2023-04-15T11:30:32;22.53;;;17.23;;
19193;SDS011;9729;52.296;13.260;2023-04-15T11:32:59;23.97;;;17.63;;
19193;SDS011;9729;52.296;13.260;2023-04-15T11:35:27;19.83;;;15.80;;
19193;SDS011;9729;52.296;13.260;2023-04-15T11:37:54;23.30;;;16.40;;
19193;SDS011;9729;52.296;13.260;2023-04-15T11:40:21;23.40;;;16.90;;
19193;SDS011;9729;52.296;13.260;2023-04-15T11:43:02;28.93;;;18.47;;
19193;SDS011;9729;52.296;13.260;2023-04-15T11:45:29;23.73;;;16.33;;
19193;SDS011;9729;52.296;13.260;2023-04-15T11:48:00;23.73;;;17.30;;
19193;SDS011;9729;52.296;13.260;2023-04-15T11:50:30;25.90;;;18.83;;
19193;SDS011;9729;52.296;13.260;2023-04-15T11:52:57;23.93;;;17.20;;
19193;SDS011;9729;52.296;13.260;2023-04-15T11:55:24;24.40;;;17.80;;
19193;SDS011;9729;52.296;13.260;2023-04-15T11:58:04;22.10;;;17.93;;
19193;SDS011;9729;52.296;13.260;2023-04-15T12:00:32;22.50;;;17.10;;
19193;SDS011;9729;52.296;13.260;2023-04-15T12:03:11;23.97;;;16.73;;
19193;SDS011;9729;52.296;13.260;2023-04-15T12:11:18;19.80;;;15.60;;
19193;SDS011;9729;52.296;13.260;2023-04-15T12:13:45;19.33;;;16.13;;
19193;SDS011;9729;52.296;13.260;2023-04-15T12:16:12;23.30;;;16.80;;
19193;SDS011;9729;52.296;13.260;2023-04-15T12:18:40;22.13;;;17.20;;
19193;SDS011;9729;52.296;13.260;2023-04-15T12:21:10;27.10;;;16.40;;
19193;SDS011;9729;52.296;13.260;2023-04-15T12:23:37;21.67;;;16.97;;
19193;SDS011;9729;52.296;13.260;2023-04-15T12:26:04;26.07;;;18.33;;
19193;SDS011;9729;52.296;13.260;2023-04-15T12:28:30;19.63;;;14.10;;
19193;SDS011;9729;52.296;13.260;2023-04-15T12:30:57;20.53;;;15.63;;
19193;SDS011;9729;52.296;13.260;2023-04-15T12:33:29;21.03;;;15.20;;
19193;SDS011;9729;52.296;13.260;2023-04-15T12:35:59;19.23;;;14.60;;
19193;SDS011;9729;52.296;13.260;2023-04-15T12:38:25;18.93;;;15.17;;
19193;SDS011;9729;52.296;13.260;2023-04-15T12:40:52;17.37;;;12.83;;
19193;SDS011;9729;52.296;13.260;2023-04-15T12:43:19;21.43;;;15.57;;
19193;SDS011;9729;52.296;13.260;2023-04-15T12:45:45;19.63;;;13.97;;
19193;SDS011;9729;52.296;13.260;2023-04-15T12:48:12;19.20;;;13.97;;
19193;SDS011;9729;52.296;13.260;2023-04-15T12:50:38;21.30;;;13.00;;
19193;SDS011;9729;52.296;13.260;2023-04-15T12:53:06;18.47;;;14.93;;
19193;SDS011;9729;52.296;13.260;2023-04-15T12:55:33;16.00;;;12.93;;
19193;SDS011;9729;52.296;13.260;2023-04-15T12:57:59;18.97;;;13.73;;
19193;SDS011;9729;52.296;13.260;2023-04-15T13:00:26;16.03;;;12.53;;
19193;SDS011;9729;52.296;13.260;2023-04-15T13:02:52;16.53;;;13.73;;
19193;SDS011;9729;52.296;13.260;2023-04-15T13:05:19;17.47;;;11.90;;
19193;SDS011;9729;52.296;13.260;2023-04-15T13:07:45;17.10;;;11.83;;
19193;SDS011;9729;52.296;13.260;2023-04-15T13:10:13;16.27;;;12.40;;
19193;SDS011;9729;52.296;13.260;2023-04-15T13:12:39;15.17;;;12.00;;
19193;SDS011;9729;52.296;13.260;2023-04-15T13:15:06;20.97;;;13.60;;
19193;SDS011;9729;52.296;13.260;2023-04-15T13:17:34;16.50;;;12.73;;
19193;SDS011;9729;52.296;13.260;2023-04-15T13:20:01;18.17;;;12.40;;
19193;SDS011;9729;52.296;13.260;2023-04-15T13:22:27;12.57;;;10.97;;
19193;SDS011;9729;52.296;13.260;2023-04-15T13:24:53;16.70;;;13.33;;
19193;SDS011;9729;52.296;13.260;2023-04-15T13:27:21;13.87;;;11.30;;
19193;SDS011;9729;52.296;13.260;2023-04-15T13:29:48;19.13;;;14.43;;
19193;SDS011;9729;52.296;13.260;2023-04-15T13:32:14;17.67;;;11.80;;
19193;SDS011;9729;52.296;13.260;2023-04-15T13:34:40;15.93;;;12.20;;
19193;SDS011;9729;52.296;13.260;2023-04-15T13:37:07;15.60;;;12.70;;
19193;SDS011;9729;52.296;13.260;2023-04-15T13:39:34;19.97;;;13.43;;
19193;SDS011;9729;52.296;13.260;2023-04-15T13:42:00;20.87;;;11.80;;
19193;SDS011;9729;52.296;13.260;2023-04-15T13:47:24;16.10;;;12.50;;
19193;SDS011;9729;52.296;13.260;2023-04-15T13:49:51;18.80;;;13.70;;
19193;SDS011;9729;52.296;13.260;2023-04-15T13:52:20;15.13;;;12.87;;
19193;SDS011;9729;52.296;13.260;2023-04-15T13:54:46;17.80;;;13.50;;
19193;SDS011;9729;52.296;13.260;2023-04-15T13:57:12;19.30;;;14.27;;
19193;SDS011;9729;52.296;13.260;2023-04-15T13:59:39;16.80;;;13.77;;
19193;SDS011;9729;52.296;13.260;2023-04-15T14:02:06;16.23;;;13.40;;
19193;SDS011;9729;52.296;13.260;2023-04-15T14:04:33;20.20;;;13.97;;
19193;SDS011;9729;52.296;13.260;2023-04-15T14:06:59;17.30;;;13.20;;
19193;SDS011;9729;52.296;13.260;2023-04-15T14:09:25;16.50;;;13.80;;
19193;SDS011;9729;52.296;13.260;2023-04-15T14:11:52;16.20;;;12.87;;
19193;SDS011;9729;52.296;13.260;2023-04-15T14:14:18;15.47;;;11.23;;
19193;SDS011;9729;52.296;13.260;2023-04-15T14:16:45;16.97;;;13.77;;
19193;SDS011;9729;52.296;13.260;2023-04-15T14:19:13;20.60;;;13.80;;
19193;SDS011;9729;52.296;13.260;2023-04-15T14:21:40;17.37;;;14.63;;
19193;SDS011;9729;52.296;13.260;2023-04-15T14:24:06;17.37;;;13.33;;
19193;SDS011;9729;52.296;13.260;2023-04-15T14:26:35;20.30;;;14.67;;
19193;SDS011;9729;52.296;13.260;2023-04-15T14:29:02;18.63;;;13.70;;
19193;SDS011;9729;52.296;13.260;2023-04-15T14:31:31;21.37;;;15.03;;